sensor_id;sensor_type;location;lat;lon;timestamp;P1;durP1;ratioP1;P2;durP2;ratioP2
55210;SDS011;41082;52.822;6.666;2024-01-30T00:01:39;17.13;;;11.90;;
55210;SDS011;41082;52.822;6.666;2024-01-30T00:04:04;17.00;;;11.88;;
55210;SDS011;41082;52.822;6.666;2024-01-30T00:06:30;19.83;;;12.25;;
55210;SDS011;41082;52.822;6.666;2024-01-30T00:08:56;13.95;;;11.32;;
55210;SDS011;41082;52.822;6.666;2024-01-30T00:11:22;15.30;;;12.40;;
55210;SDS011;41082;52.822;6.666;2024-01-30T00:13:50;17.42;;;11.75;;
55210;SDS011;41082;52.822;6.666;2024-01-30T00:16:20;17.52;;;11.60;;
55210;SDS011;41082;52.822;6.666;2024-01-30T00:18:46;16.85;;;11.60;;
55210;SDS011;41082;52.822;6.666;2024-01-30T00:21:12;15.63;;;11.88;;
55210;SDS011;41082;52.822;6.666;2024-01-30T00:23:38;16.70;;;12.02;;
55210;SDS011;41082;52.822;6.666;2024-01-30T00:26:03;18.13;;;11.82;;
55210;SDS011;41082;52.822;6.666;2024-01-30T00:28:30;15.93;;;11.55;;
55210;SDS011;41082;52.822;6.666;2024-01-30T00:30:56;15.50;;;11.85;;
55210;SDS011;41082;52.822;6.666;2024-01-30T00:33:21;15.43;;;11.55;;
55210;SDS011;41082;52.822;6.666;2024-01-30T00:35:47;15.38;;;11.48;;
55210;SDS011;41082;52.822;6.666;2024-01-30T00:38:13;17.50;;;10.25;;
55210;SDS011;41082;52.822;6.666;2024-01-30T00:40:38;17.27;;;10.45;;
55210;SDS011;41082;52.822;6.666;2024-01-30T00:43:04;17.88;;;11.48;;
55210;SDS011;41082;52.822;6.666;2024-01-30T00:45:29;14.35;;;10.18;;
55210;SDS011;41082;52.822;6.666;2024-01-30T00:47:55;16.40;;;11.48;;
55210;SDS011;41082;52.822;6.666;2024-01-30T00:50:21;15.05;;;11.13;;
55210;SDS011;41082;52.822;6.666;2024-01-30T00:52:46;15.23;;;10.98;;
55210;SDS011;41082;52.822;6.666;2024-01-30T00:55:12;19.33;;;11.35;;
55210;SDS011;41082;52.822;6.666;2024-01-30T00:57:39;17.52;;;10.20;;
55210;SDS011;41082;52.822;6.666;2024-01-30T01:00:05;21.00;;;11.35;;
55210;SDS011;41082;52.822;6.666;2024-01-30T01:02:34;16.00;;;11.43;;
55210;SDS011;41082;52.822;6.666;2024-01-30T01:05:00;17.20;;;11.82;;
55210;SDS011;41082;52.822;6.666;2024-01-30T01:07:25;16.05;;;11.15;;
55210;SDS011;41082;52.822;6.666;2024-01-30T01:09:51;16.42;;;11.98;;
55210;SDS011;41082;52.822;6.666;2024-01-30T01:12:16;16.15;;;10.75;;
55210;SDS011;41082;52.822;6.666;2024-01-30T01:14:42;13.52;;;10.38;;
55210;SDS011;41082;52.822;6.666;2024-01-30T01:17:08;14.90;;;11.07;;
55210;SDS011;41082;52.822;6.666;2024-01-30T01:19:33;15.57;;;11.02;;
55210;SDS011;41082;52.822;6.666;2024-01-30T01:21:59;16.85;;;11.23;;
55210;SDS011;41082;52.822;6.666;2024-01-30T01:24:25;14.77;;;10.82;;
55210;SDS011;41082;52.822;6.666;2024-01-30T01:26:50;17.35;;;10.57;;
55210;SDS011;41082;52.822;6.666;2024-01-30T01:29:16;15.95;;;10.82;;
55210;SDS011;41082;52.822;6.666;2024-01-30T01:31:42;17.42;;;11.45;;
55210;SDS011;41082;52.822;6.666;2024-01-30T01:34:11;16.45;;;10.90;;
55210;SDS011;41082;52.822;6.666;2024-01-30T01:36:37;14.40;;;10.73;;
55210;SDS011;41082;52.822;6.666;2024-01-30T01:39:03;14.75;;;10.68;;
55210;SDS011;41082;52.822;6.666;2024-01-30T01:41:32;14.02;;;10.60;;
55210;SDS011;41082;52.822;6.666;2024-01-30T01:43:58;18.73;;;11.50;;
55210;SDS011;41082;52.822;6.666;2024-01-30T01:46:27;14.75;;;11.30;;
55210;SDS011;41082;52.822;6.666;2024-01-30T01:48:55;15.07;;;11.30;;
55210;SDS011;41082;52.822;6.666;2024-01-30T01:51:21;15.48;;;10.90;;
55210;SDS011;41082;52.822;6.666;2024-01-30T01:53:48;12.82;;;10.90;;
55210;SDS011;41082;52.822;6.666;2024-01-30T01:56:13;13.00;;;10.80;;
55210;SDS011;41082;52.822;6.666;2024-01-30T01:58:40;17.35;;;11.52;;
55210;SDS011;41082;52.822;6.666;2024-01-30T02:01:06;16.75;;;10.95;;
55210;SDS011;41082;52.822;6.666;2024-01-30T02:03:33;14.70;;;10.48;;
55210;SDS011;41082;52.822;6.666;2024-01-30T02:05:59;15.85;;;11.60;;
55210;SDS011;41082;52.822;6.666;2024-01-30T02:08:27;16.05;;;10.80;;
55210;SDS011;41082;52.822;6.666;2024-01-30T02:10:53;19.77;;;11.00;;
55210;SDS011;41082;52.822;6.666;2024-01-30T02:13:20;15.15;;;11.30;;
55210;SDS011;41082;52.822;6.666;2024-01-30T02:15:51;16.02;;;10.88;;
55210;SDS011;41082;52.822;6.666;2024-01-30T02:18:17;14.77;;;10.52;;
55210;SDS011;41082;52.822;6.666;2024-01-30T02:20:44;16.77;;;11.60;;
55210;SDS011;41082;52.822;6.666;2024-01-30T02:23:10;15.38;;;10.98;;
55210;SDS011;41082;52.822;6.666;2024-01-30T02:25:38;14.10;;;11.07;;
55210;SDS011;41082;52.822;6.666;2024-01-30T02:28:14;14.50;;;10.32;;
55210;SDS011;41082;52.822;6.666;2024-01-30T02:30:42;14.07;;;10.38;;
55210;SDS011;41082;52.822;6.666;2024-01-30T02:33:08;17.40;;;11.02;;
55210;SDS011;41082;52.822;6.666;2024-01-30T02:35:33;14.07;;;11.60;;
55210;SDS011;41082;52.822;6.666;2024-01-30T02:37:59;15.68;;;11.43;;
55210;SDS011;41082;52.822;6.666;2024-01-30T02:40:25;15.55;;;11.02;;
55210;SDS011;41082;52.822;6.666;2024-01-30T02:42:50;17.33;;;10.43;;
55210;SDS011;41082;52.822;6.666;2024-01-30T02:45:16;15.27;;;10.60;;
55210;SDS011;41082;52.822;6.666;2024-01-30T02:47:42;15.90;;;11.13;;
55210;SDS011;41082;52.822;6.666;2024-01-30T02:50:08;17.25;;;10.65;;
55210;SDS011;41082;52.822;6.666;2024-01-30T02:52:34;14.73;;;9.95;;
55210;SDS011;41082;52.822;6.666;2024-01-30T02:55:00;16.10;;;10.13;;
55210;SDS011;41082;52.822;6.666;2024-01-30T02:57:25;16.35;;;10.73;;
55210;SDS011;41082;52.822;6.666;2024-01-30T02:59:51;14.85;;;10.45;;
55210;SDS011;41082;52.822;6.666;2024-01-30T03:02:17;15.63;;;10.38;;
55210;SDS011;41082;52.822;6.666;2024-01-30T03:04:43;14.95;;;10.50;;
55210;SDS011;41082;52.822;6.666;2024-01-30T03:07:08;14.43;;;10.75;;
55210;SDS011;41082;52.822;6.666;2024-01-30T03:09:34;14.38;;;10.20;;
55210;SDS011;41082;52.822;6.666;2024-01-30T03:12:00;13.65;;;10.38;;
55210;SDS011;41082;52.822;6.666;2024-01-30T03:14:26;14.73;;;10.43;;
55210;SDS011;41082;52.822;6.666;2024-01-30T03:16:51;16.80;;;10.57;;
55210;SDS011;41082;52.822;6.666;2024-01-30T03:19:17;16.92;;;10.40;;
55210;SDS011;41082;52.822;6.666;2024-01-30T03:21:43;13.77;;;10.75;;
55210;SDS011;41082;52.822;6.666;2024-01-30T03:24:09;14.60;;;10.30;;
55210;SDS011;41082;52.822;6.666;2024-01-30T03:26:35;13.82;;;10.18;;
55210;SDS011;41082;52.822;6.666;2024-01-30T03:29:01;12.82;;;9.88;;
55210;SDS011;41082;52.822;6.666;2024-01-30T03:31:26;15.07;;;11.20;;
55210;SDS011;41082;52.822;6.666;2024-01-30T03:33:52;14.98;;;10.70;;
55210;SDS011;41082;52.822;6.666;2024-01-30T03:36:18;14.65;;;10.13;;
55210;SDS011;41082;52.822;6.666;2024-01-30T03:38:43;14.00;;;10.32;;
55210;SDS011;41082;52.822;6.666;2024-01-30T03:41:09;15.40;;;10.98;;
55210;SDS011;41082;52.822;6.666;2024-01-30T03:43:35;14.63;;;10.30;;
55210;SDS011;41082;52.822;6.666;2024-01-30T03:46:01;16.00;;;10.48;;
55210;SDS011;41082;52.822;6.666;2024-01-30T03:48:28;13.38;;;9.52;;
55210;SDS011;41082;52.822;6.666;2024-01-30T03:50:53;13.07;;;10.40;;
55210;SDS011;41082;52.822;6.666;2024-01-30T03:53:19;15.98;;;11.13;;
55210;SDS011;41082;52.822;6.666;2024-01-30T03:55:45;14.13;;;10.35;;
55210;SDS011;41082;52.822;6.666;2024-01-30T03:58:10;13.90;;;10.07;;
55210;SDS011;41082;52.822;6.666;2024-01-30T04:00:36;14.48;;;10.32;;
55210;SDS011;41082;52.822;6.666;2024-01-30T04:03:02;16.27;;;10.80;;
55210;SDS011;41082;52.822;6.666;2024-01-30T04:05:28;13.13;;;9.82;;
55210;SDS011;41082;52.822;6.666;2024-01-30T04:07:53;13.77;;;10.40;;
55210;SDS011;41082;52.822;6.666;2024-01-30T04:10:19;14.75;;;10.98;;
55210;SDS011;41082;52.822;6.666;2024-01-30T04:12:45;17.08;;;11.07;;
55210;SDS011;41082;52.822;6.666;2024-01-30T04:15:10;15.82;;;10.90;;
55210;SDS011;41082;52.822;6.666;2024-01-30T04:17:36;12.73;;;10.25;;
55210;SDS011;41082;52.822;6.666;2024-01-30T04:20:02;17.77;;;11.50;;
55210;SDS011;41082;52.822;6.666;2024-01-30T04:22:27;14.90;;;9.77;;
55210;SDS011;41082;52.822;6.666;2024-01-30T04:24:53;14.65;;;9.95;;
55210;SDS011;41082;52.822;6.666;2024-01-30T04:27:19;15.95;;;10.40;;
55210;SDS011;41082;52.822;6.666;2024-01-30T04:29:44;13.93;;;10.48;;
55210;SDS011;41082;52.822;6.666;2024-01-30T04:32:10;14.48;;;10.55;;
55210;SDS011;41082;52.822;6.666;2024-01-30T04:34:36;14.95;;;9.63;;
55210;SDS011;41082;52.822;6.666;2024-01-30T04:37:02;13.32;;;9.90;;
55210;SDS011;41082;52.822;6.666;2024-01-30T04:39:28;15.55;;;10.70;;
55210;SDS011;41082;52.822;6.666;2024-01-30T04:41:53;14.52;;;10.48;;
55210;SDS011;41082;52.822;6.666;2024-01-30T04:44:19;15.57;;;11.75;;
55210;SDS011;41082;52.822;6.666;2024-01-30T04:46:45;16.10;;;11.05;;
55210;SDS011;41082;52.822;6.666;2024-01-30T04:49:10;16.67;;;11.20;;
55210;SDS011;41082;52.822;6.666;2024-01-30T04:51:36;14.02;;;10.13;;
55210;SDS011;41082;52.822;6.666;2024-01-30T04:54:02;13.68;;;10.27;;
55210;SDS011;41082;52.822;6.666;2024-01-30T04:56:27;16.25;;;10.65;;
55210;SDS011;41082;52.822;6.666;2024-01-30T04:58:53;13.85;;;10.02;;
55210;SDS011;41082;52.822;6.666;2024-01-30T05:01:19;15.52;;;10.93;;
55210;SDS011;41082;52.822;6.666;2024-01-30T05:03:44;14.18;;;11.05;;
55210;SDS011;41082;52.822;6.666;2024-01-30T05:06:10;15.20;;;10.60;;
55210;SDS011;41082;52.822;6.666;2024-01-30T05:08:35;15.25;;;10.63;;
55210;SDS011;41082;52.822;6.666;2024-01-30T05:11:05;15.40;;;11.02;;
55210;SDS011;41082;52.822;6.666;2024-01-30T05:13:31;13.13;;;10.32;;
55210;SDS011;41082;52.822;6.666;2024-01-30T05:15:56;15.95;;;10.90;;
55210;SDS011;41082;52.822;6.666;2024-01-30T05:18:22;15.95;;;10.68;;
55210;SDS011;41082;52.822;6.666;2024-01-30T05:20:49;14.07;;;10.93;;
55210;SDS011;41082;52.822;6.666;2024-01-30T05:23:15;16.95;;;11.75;;
55210;SDS011;41082;52.822;6.666;2024-01-30T05:25:41;15.60;;;11.02;;
55210;SDS011;41082;52.822;6.666;2024-01-30T05:28:06;15.18;;;10.70;;
55210;SDS011;41082;52.822;6.666;2024-01-30T05:30:32;14.80;;;11.10;;
55210;SDS011;41082;52.822;6.666;2024-01-30T05:32:57;13.98;;;10.48;;
55210;SDS011;41082;52.822;6.666;2024-01-30T05:35:23;15.07;;;11.50;;
55210;SDS011;41082;52.822;6.666;2024-01-30T05:37:49;17.58;;;11.10;;
55210;SDS011;41082;52.822;6.666;2024-01-30T05:40:15;15.90;;;11.30;;
55210;SDS011;41082;52.822;6.666;2024-01-30T05:42:41;15.38;;;11.38;;
55210;SDS011;41082;52.822;6.666;2024-01-30T05:45:07;16.75;;;11.60;;
55210;SDS011;41082;52.822;6.666;2024-01-30T05:47:34;13.40;;;10.65;;
55210;SDS011;41082;52.822;6.666;2024-01-30T05:50:00;16.35;;;11.27;;
55210;SDS011;41082;52.822;6.666;2024-01-30T05:52:25;14.32;;;11.43;;
55210;SDS011;41082;52.822;6.666;2024-01-30T05:54:51;14.35;;;11.18;;
55210;SDS011;41082;52.822;6.666;2024-01-30T05:57:17;17.83;;;11.02;;
55210;SDS011;41082;52.822;6.666;2024-01-30T05:59:43;13.70;;;10.35;;
55210;SDS011;41082;52.822;6.666;2024-01-30T06:02:12;15.15;;;10.85;;
55210;SDS011;41082;52.822;6.666;2024-01-30T06:04:38;14.32;;;10.93;;
55210;SDS011;41082;52.822;6.666;2024-01-30T06:07:04;15.85;;;11.30;;
55210;SDS011;41082;52.822;6.666;2024-01-30T06:09:31;17.08;;;10.80;;
55210;SDS011;41082;52.822;6.666;2024-01-30T06:11:57;13.93;;;11.48;;
55210;SDS011;41082;52.822;6.666;2024-01-30T06:14:23;14.95;;;10.45;;
55210;SDS011;41082;52.822;6.666;2024-01-30T06:16:49;15.77;;;11.48;;
55210;SDS011;41082;52.822;6.666;2024-01-30T06:19:15;14.85;;;11.23;;
55210;SDS011;41082;52.822;6.666;2024-01-30T06:21:41;16.80;;;10.93;;
55210;SDS011;41082;52.822;6.666;2024-01-30T06:24:06;15.68;;;11.02;;
55210;SDS011;41082;52.822;6.666;2024-01-30T06:26:32;18.27;;;11.75;;
55210;SDS011;41082;52.822;6.666;2024-01-30T06:28:57;14.95;;;11.60;;
55210;SDS011;41082;52.822;6.666;2024-01-30T06:31:23;17.90;;;12.05;;
55210;SDS011;41082;52.822;6.666;2024-01-30T06:33:49;15.63;;;10.57;;
55210;SDS011;41082;52.822;6.666;2024-01-30T06:36:15;13.93;;;10.63;;
55210;SDS011;41082;52.822;6.666;2024-01-30T06:38:41;14.50;;;10.07;;
55210;SDS011;41082;52.822;6.666;2024-01-30T06:41:07;13.05;;;10.68;;
55210;SDS011;41082;52.822;6.666;2024-01-30T06:43:32;14.45;;;10.50;;
55210;SDS011;41082;52.822;6.666;2024-01-30T06:45:58;13.77;;;10.35;;
55210;SDS011;41082;52.822;6.666;2024-01-30T06:48:24;12.38;;;10.35;;
55210;SDS011;41082;52.822;6.666;2024-01-30T06:50:53;16.67;;;11.48;;
55210;SDS011;41082;52.822;6.666;2024-01-30T06:53:19;12.70;;;10.23;;
55210;SDS011;41082;52.822;6.666;2024-01-30T06:55:44;13.43;;;10.48;;
55210;SDS011;41082;52.822;6.666;2024-01-30T06:58:10;16.88;;;10.45;;
55210;SDS011;41082;52.822;6.666;2024-01-30T07:00:36;16.45;;;11.50;;
55210;SDS011;41082;52.822;6.666;2024-01-30T07:03:02;15.88;;;10.82;;
55210;SDS011;41082;52.822;6.666;2024-01-30T07:05:27;15.43;;;10.88;;
55210;SDS011;41082;52.822;6.666;2024-01-30T07:07:53;14.68;;;10.40;;
55210;SDS011;41082;52.822;6.666;2024-01-30T07:10:19;14.43;;;10.93;;
55210;SDS011;41082;52.822;6.666;2024-01-30T07:12:44;15.52;;;10.23;;
55210;SDS011;41082;52.822;6.666;2024-01-30T07:15:10;15.07;;;10.60;;
55210;SDS011;41082;52.822;6.666;2024-01-30T07:17:35;14.80;;;10.32;;
55210;SDS011;41082;52.822;6.666;2024-01-30T07:20:02;13.27;;;10.45;;
55210;SDS011;41082;52.822;6.666;2024-01-30T07:22:31;15.38;;;10.18;;
55210;SDS011;41082;52.822;6.666;2024-01-30T07:24:57;17.55;;;10.68;;
55210;SDS011;41082;52.822;6.666;2024-01-30T07:27:22;14.45;;;10.75;;
55210;SDS011;41082;52.822;6.666;2024-01-30T07:29:48;13.32;;;10.73;;
55210;SDS011;41082;52.822;6.666;2024-01-30T07:32:14;15.45;;;10.93;;
55210;SDS011;41082;52.822;6.666;2024-01-30T07:34:39;14.15;;;10.70;;
55210;SDS011;41082;52.822;6.666;2024-01-30T07:37:05;14.88;;;10.38;;
55210;SDS011;41082;52.822;6.666;2024-01-30T07:39:33;14.10;;;10.70;;
55210;SDS011;41082;52.822;6.666;2024-01-30T07:41:59;15.05;;;10.52;;
55210;SDS011;41082;52.822;6.666;2024-01-30T07:44:25;16.38;;;10.05;;
55210;SDS011;41082;52.822;6.666;2024-01-30T07:46:51;13.10;;;10.40;;
55210;SDS011;41082;52.822;6.666;2024-01-30T07:49:16;14.25;;;10.80;;
55210;SDS011;41082;52.822;6.666;2024-01-30T07:51:42;13.20;;;10.45;;
55210;SDS011;41082;52.822;6.666;2024-01-30T07:54:14;15.00;;;10.13;;
55210;SDS011;41082;52.822;6.666;2024-01-30T07:59:09;16.65;;;10.57;;
55210;SDS011;41082;52.822;6.666;2024-01-30T08:01:36;15.48;;;10.05;;
55210;SDS011;41082;52.822;6.666;2024-01-30T08:04:02;14.23;;;10.07;;
55210;SDS011;41082;52.822;6.666;2024-01-30T08:06:27;14.30;;;10.18;;
55210;SDS011;41082;52.822;6.666;2024-01-30T08:08:53;15.32;;;10.07;;
55210;SDS011;41082;52.822;6.666;2024-01-30T08:11:22;13.63;;;9.77;;
55210;SDS011;41082;52.822;6.666;2024-01-30T08:13:51;17.60;;;10.15;;
55210;SDS011;41082;52.822;6.666;2024-01-30T08:16:17;14.82;;;11.02;;
55210;SDS011;41082;52.822;6.666;2024-01-30T08:18:43;11.25;;;9.90;;
55210;SDS011;41082;52.822;6.666;2024-01-30T08:21:09;13.68;;;10.52;;
55210;SDS011;41082;52.822;6.666;2024-01-30T08:23:34;11.80;;;9.77;;
55210;SDS011;41082;52.822;6.666;2024-01-30T08:26:00;12.95;;;10.25;;
55210;SDS011;41082;52.822;6.666;2024-01-30T08:28:26;15.13;;;9.80;;
55210;SDS011;41082;52.822;6.666;2024-01-30T08:30:52;15.80;;;10.10;;
55210;SDS011;41082;52.822;6.666;2024-01-30T08:33:18;13.88;;;9.60;;
55210;SDS011;41082;52.822;6.666;2024-01-30T08:35:43;12.55;;;9.32;;
55210;SDS011;41082;52.822;6.666;2024-01-30T08:38:09;12.93;;;9.25;;
55210;SDS011;41082;52.822;6.666;2024-01-30T08:40:37;15.90;;;9.95;;
55210;SDS011;41082;52.822;6.666;2024-01-30T08:43:03;13.35;;;8.77;;
55210;SDS011;41082;52.822;6.666;2024-01-30T08:45:29;15.02;;;9.70;;
55210;SDS011;41082;52.822;6.666;2024-01-30T08:47:55;12.43;;;9.52;;
55210;SDS011;41082;52.822;6.666;2024-01-30T08:50:21;14.38;;;9.95;;
55210;SDS011;41082;52.822;6.666;2024-01-30T08:52:47;11.55;;;9.02;;
55210;SDS011;41082;52.822;6.666;2024-01-30T08:55:13;10.88;;;8.82;;
55210;SDS011;41082;52.822;6.666;2024-01-30T08:57:39;11.48;;;8.60;;
55210;SDS011;41082;52.822;6.666;2024-01-30T09:00:04;13.70;;;9.63;;
55210;SDS011;41082;52.822;6.666;2024-01-30T09:02:32;12.10;;;8.40;;
55210;SDS011;41082;52.822;6.666;2024-01-30T09:04:58;11.73;;;8.73;;
55210;SDS011;41082;52.822;6.666;2024-01-30T09:07:24;12.18;;;9.05;;
55210;SDS011;41082;52.822;6.666;2024-01-30T09:09:49;14.80;;;9.50;;
55210;SDS011;41082;52.822;6.666;2024-01-30T09:12:15;15.00;;;8.35;;
55210;SDS011;41082;52.822;6.666;2024-01-30T09:14:40;10.32;;;7.75;;
55210;SDS011;41082;52.822;6.666;2024-01-30T09:17:06;12.15;;;8.18;;
55210;SDS011;41082;52.822;6.666;2024-01-30T09:19:32;13.50;;;9.02;;
55210;SDS011;41082;52.822;6.666;2024-01-30T09:21:58;9.00;;;7.85;;
55210;SDS011;41082;52.822;6.666;2024-01-30T09:24:25;14.27;;;8.90;;
55210;SDS011;41082;52.822;6.666;2024-01-30T09:26:51;11.32;;;8.18;;
55210;SDS011;41082;52.822;6.666;2024-01-30T09:29:16;14.23;;;9.05;;
55210;SDS011;41082;52.822;6.666;2024-01-30T09:31:45;12.40;;;8.73;;
55210;SDS011;41082;52.822;6.666;2024-01-30T09:34:11;11.10;;;8.23;;
55210;SDS011;41082;52.822;6.666;2024-01-30T09:36:37;11.65;;;8.73;;
55210;SDS011;41082;52.822;6.666;2024-01-30T09:39:03;10.98;;;8.00;;
55210;SDS011;41082;52.822;6.666;2024-01-30T09:41:29;11.80;;;8.43;;
55210;SDS011;41082;52.822;6.666;2024-01-30T09:43:58;11.55;;;8.70;;
55210;SDS011;41082;52.822;6.666;2024-01-30T09:46:26;14.00;;;8.77;;
55210;SDS011;41082;52.822;6.666;2024-01-30T09:48:55;11.43;;;8.32;;
55210;SDS011;41082;52.822;6.666;2024-01-30T09:51:22;13.63;;;8.15;;
55210;SDS011;41082;52.822;6.666;2024-01-30T09:53:49;11.45;;;8.15;;
55210;SDS011;41082;52.822;6.666;2024-01-30T09:56:15;15.80;;;8.95;;
55210;SDS011;41082;52.822;6.666;2024-01-30T09:58:41;12.63;;;7.68;;
55210;SDS011;41082;52.822;6.666;2024-01-30T10:01:08;11.43;;;8.15;;
55210;SDS011;41082;52.822;6.666;2024-01-30T10:03:33;11.43;;;8.13;;
55210;SDS011;41082;52.822;6.666;2024-01-30T10:05:59;10.13;;;7.63;;
55210;SDS011;41082;52.822;6.666;2024-01-30T10:08:26;11.52;;;8.15;;
55210;SDS011;41082;52.822;6.666;2024-01-30T10:10:52;12.60;;;8.23;;
55210;SDS011;41082;52.822;6.666;2024-01-30T10:13:18;14.60;;;8.85;;
55210;SDS011;41082;52.822;6.666;2024-01-30T10:15:44;13.45;;;8.38;;
55210;SDS011;41082;52.822;6.666;2024-01-30T10:18:12;13.48;;;8.30;;
55210;SDS011;41082;52.822;6.666;2024-01-30T10:20:38;12.38;;;7.30;;
55210;SDS011;41082;52.822;6.666;2024-01-30T10:23:04;11.40;;;8.93;;
55210;SDS011;41082;52.822;6.666;2024-01-30T10:25:32;12.65;;;7.80;;
55210;SDS011;41082;52.822;6.666;2024-01-30T10:27:58;13.75;;;7.07;;
55210;SDS011;41082;52.822;6.666;2024-01-30T10:30:24;14.52;;;7.70;;
55210;SDS011;41082;52.822;6.666;2024-01-30T10:32:50;14.95;;;8.30;;
55210;SDS011;41082;52.822;6.666;2024-01-30T10:35:16;13.23;;;7.80;;
55210;SDS011;41082;52.822;6.666;2024-01-30T10:37:48;13.68;;;7.85;;
55210;SDS011;41082;52.822;6.666;2024-01-30T10:40:14;14.18;;;8.32;;
55210;SDS011;41082;52.822;6.666;2024-01-30T10:42:43;17.02;;;8.32;;
55210;SDS011;41082;52.822;6.666;2024-01-30T10:45:10;12.88;;;8.02;;
55210;SDS011;41082;52.822;6.666;2024-01-30T10:47:39;13.35;;;8.20;;
55210;SDS011;41082;52.822;6.666;2024-01-30T10:50:05;8.75;;;7.22;;
55210;SDS011;41082;52.822;6.666;2024-01-30T10:52:34;9.98;;;7.03;;
55210;SDS011;41082;52.822;6.666;2024-01-30T10:54:59;13.27;;;7.95;;
55210;SDS011;41082;52.822;6.666;2024-01-30T10:57:26;11.68;;;7.85;;
55210;SDS011;41082;52.822;6.666;2024-01-30T11:00:01;20.25;;;7.18;;
55210;SDS011;41082;52.822;6.666;2024-01-30T11:02:35;10.57;;;7.18;;
55210;SDS011;41082;52.822;6.666;2024-01-30T11:05:06;13.80;;;8.32;;
55210;SDS011;41082;52.822;6.666;2024-01-30T11:07:32;14.30;;;8.05;;
55210;SDS011;41082;52.822;6.666;2024-01-30T11:12:26;15.63;;;8.23;;
55210;SDS011;41082;52.822;6.666;2024-01-30T11:17:51;11.38;;;8.00;;
55210;SDS011;41082;52.822;6.666;2024-01-30T11:20:21;13.10;;;7.78;;
55210;SDS011;41082;52.822;6.666;2024-01-30T11:22:54;10.75;;;8.13;;
55210;SDS011;41082;52.822;6.666;2024-01-30T11:25:21;14.63;;;8.23;;
55210;SDS011;41082;52.822;6.666;2024-01-30T11:27:49;11.68;;;7.72;;
55210;SDS011;41082;52.822;6.666;2024-01-30T11:30:22;16.35;;;7.95;;
55210;SDS011;41082;52.822;6.666;2024-01-30T11:35:32;12.85;;;8.18;;
55210;SDS011;41082;52.822;6.666;2024-01-30T11:37:59;15.73;;;8.13;;
55210;SDS011;41082;52.822;6.666;2024-01-30T11:40:27;14.88;;;8.90;;
55210;SDS011;41082;52.822;6.666;2024-01-30T11:42:54;14.65;;;8.75;;
55210;SDS011;41082;52.822;6.666;2024-01-30T11:45:20;16.90;;;9.27;;
55210;SDS011;41082;52.822;6.666;2024-01-30T11:47:46;13.90;;;8.63;;
55210;SDS011;41082;52.822;6.666;2024-01-30T11:50:12;17.23;;;9.75;;
55210;SDS011;41082;52.822;6.666;2024-01-30T11:52:38;12.48;;;8.52;;
55210;SDS011;41082;52.822;6.666;2024-01-30T11:55:04;11.70;;;8.52;;
55210;SDS011;41082;52.822;6.666;2024-01-30T11:57:31;12.73;;;8.85;;
55210;SDS011;41082;52.822;6.666;2024-01-30T11:59:56;10.65;;;8.32;;
55210;SDS011;41082;52.822;6.666;2024-01-30T12:02:22;13.52;;;8.30;;
55210;SDS011;41082;52.822;6.666;2024-01-30T12:04:48;13.27;;;7.93;;
55210;SDS011;41082;52.822;6.666;2024-01-30T12:07:14;11.32;;;7.55;;
55210;SDS011;41082;52.822;6.666;2024-01-30T12:09:41;10.10;;;7.70;;
55210;SDS011;41082;52.822;6.666;2024-01-30T12:12:07;11.98;;;7.32;;
55210;SDS011;41082;52.822;6.666;2024-01-30T12:14:38;9.82;;;7.45;;
55210;SDS011;41082;52.822;6.666;2024-01-30T12:17:04;10.32;;;7.03;;
55210;SDS011;41082;52.822;6.666;2024-01-30T12:19:30;9.65;;;6.80;;
55210;SDS011;41082;52.822;6.666;2024-01-30T12:21:58;9.75;;;6.20;;
55210;SDS011;41082;52.822;6.666;2024-01-30T12:24:27;10.50;;;6.15;;
55210;SDS011;41082;52.822;6.666;2024-01-30T12:26:59;12.52;;;6.68;;
55210;SDS011;41082;52.822;6.666;2024-01-30T12:29:25;9.25;;;5.80;;
55210;SDS011;41082;52.822;6.666;2024-01-30T12:31:54;12.40;;;6.45;;
55210;SDS011;41082;52.822;6.666;2024-01-30T12:34:20;9.93;;;6.68;;
55210;SDS011;41082;52.822;6.666;2024-01-30T12:36:49;13.20;;;7.65;;
55210;SDS011;41082;52.822;6.666;2024-01-30T12:39:15;14.27;;;7.25;;
55210;SDS011;41082;52.822;6.666;2024-01-30T12:41:40;16.13;;;7.95;;
55210;SDS011;41082;52.822;6.666;2024-01-30T12:44:07;9.85;;;5.72;;
55210;SDS011;41082;52.822;6.666;2024-01-30T12:46:34;13.73;;;5.97;;
55210;SDS011;41082;52.822;6.666;2024-01-30T12:49:00;11.65;;;5.32;;
55210;SDS011;41082;52.822;6.666;2024-01-30T12:51:25;15.63;;;5.32;;
55210;SDS011;41082;52.822;6.666;2024-01-30T12:53:51;14.05;;;4.88;;
55210;SDS011;41082;52.822;6.666;2024-01-30T12:56:16;11.75;;;4.38;;
55210;SDS011;41082;52.822;6.666;2024-01-30T12:58:42;10.38;;;4.30;;
55210;SDS011;41082;52.822;6.666;2024-01-30T13:01:08;7.05;;;3.58;;
55210;SDS011;41082;52.822;6.666;2024-01-30T13:03:34;6.38;;;3.70;;
55210;SDS011;41082;52.822;6.666;2024-01-30T13:06:00;10.20;;;3.75;;
55210;SDS011;41082;52.822;6.666;2024-01-30T13:08:26;8.73;;;3.65;;
55210;SDS011;41082;52.822;6.666;2024-01-30T13:10:52;8.05;;;3.60;;
55210;SDS011;41082;52.822;6.666;2024-01-30T13:13:17;6.95;;;3.67;;
55210;SDS011;41082;52.822;6.666;2024-01-30T13:15:43;8.63;;;3.40;;
55210;SDS011;41082;52.822;6.666;2024-01-30T13:18:09;6.85;;;3.03;;
55210;SDS011;41082;52.822;6.666;2024-01-30T13:20:35;7.95;;;3.25;;
55210;SDS011;41082;52.822;6.666;2024-01-30T13:23:01;10.32;;;3.50;;
55210;SDS011;41082;52.822;6.666;2024-01-30T13:25:26;6.75;;;3.33;;
55210;SDS011;41082;52.822;6.666;2024-01-30T13:27:52;7.47;;;3.00;;
55210;SDS011;41082;52.822;6.666;2024-01-30T13:30:18;6.47;;;2.80;;
55210;SDS011;41082;52.822;6.666;2024-01-30T13:32:44;4.53;;;3.15;;
55210;SDS011;41082;52.822;6.666;2024-01-30T13:35:10;8.18;;;3.10;;
55210;SDS011;41082;52.822;6.666;2024-01-30T13:37:35;7.22;;;2.80;;
55210;SDS011;41082;52.822;6.666;2024-01-30T13:40:02;5.55;;;3.08;;
55210;SDS011;41082;52.822;6.666;2024-01-30T13:42:32;6.13;;;3.77;;
55210;SDS011;41082;52.822;6.666;2024-01-30T13:44:57;3.55;;;2.75;;
55210;SDS011;41082;52.822;6.666;2024-01-30T13:47:23;7.25;;;3.50;;
55210;SDS011;41082;52.822;6.666;2024-01-30T13:49:49;5.30;;;3.05;;
55210;SDS011;41082;52.822;6.666;2024-01-30T13:52:15;5.95;;;2.67;;
55210;SDS011;41082;52.822;6.666;2024-01-30T13:54:40;9.98;;;3.75;;
55210;SDS011;41082;52.822;6.666;2024-01-30T13:57:06;9.93;;;3.70;;
55210;SDS011;41082;52.822;6.666;2024-01-30T13:59:33;8.35;;;3.45;;
55210;SDS011;41082;52.822;6.666;2024-01-30T14:01:59;8.48;;;3.55;;
55210;SDS011;41082;52.822;6.666;2024-01-30T14:04:24;8.80;;;3.25;;
55210;SDS011;41082;52.822;6.666;2024-01-30T14:06:50;4.55;;;2.88;;
55210;SDS011;41082;52.822;6.666;2024-01-30T14:09:16;6.57;;;3.45;;
55210;SDS011;41082;52.822;6.666;2024-01-30T14:11:42;6.22;;;2.55;;
55210;SDS011;41082;52.822;6.666;2024-01-30T14:14:07;5.18;;;2.90;;
55210;SDS011;41082;52.822;6.666;2024-01-30T14:16:33;6.93;;;3.25;;
55210;SDS011;41082;52.822;6.666;2024-01-30T14:18:59;7.35;;;2.55;;
55210;SDS011;41082;52.822;6.666;2024-01-30T14:21:25;3.45;;;1.50;;
55210;SDS011;41082;52.822;6.666;2024-01-30T14:23:50;5.35;;;1.35;;
55210;SDS011;41082;52.822;6.666;2024-01-30T14:26:16;2.60;;;0.80;;
55210;SDS011;41082;52.822;6.666;2024-01-30T14:28:42;4.03;;;1.00;;
55210;SDS011;41082;52.822;6.666;2024-01-30T14:31:08;3.63;;;0.85;;
55210;SDS011;41082;52.822;6.666;2024-01-30T14:33:34;5.38;;;0.57;;